sensor_id;sensor_type;location;lat;lon;timestamp;pressure;altitude;pressure_sealevel;temperature;humidity
57990;BME280;58373;51.824;5.564;2023-05-19T00:02:08;102629.63;;;9.01;75.48
57990;BME280;58373;51.824;5.564;2023-05-19T00:04:33;102630.47;;;9.01;74.07
57990;BME280;58373;51.824;5.564;2023-05-19T00:06:59;102625.28;;;9.01;73.85
57990;BME280;58373;51.824;5.564;2023-05-19T00:09:25;102625.56;;;8.95;74.63
57990;BME280;58373;51.824;5.564;2023-05-19T00:11:50;102633.53;;;8.91;75.51
57990;BME280;58373;51.824;5.564;2023-05-19T00:14:15;102631.16;;;8.86;75.74
57990;BME280;58373;51.824;5.564;2023-05-19T00:16:41;102629.47;;;8.85;75.31
57990;BME280;58373;51.824;5.564;2023-05-19T00:19:06;102624.44;;;8.82;75.68
57990;BME280;58373;51.824;5.564;2023-05-19T00:21:35;102620.31;;;8.78;75.24
57990;BME280;58373;51.824;5.564;2023-05-19T00:24:02;102623.88;;;8.75;74.57
57990;BME280;58373;51.824;5.564;2023-05-19T00:26:27;102619.53;;;8.76;74.70
57990;BME280;58373;51.824;5.564;2023-05-19T00:28:52;102614.34;;;8.76;75.85
57990;BME280;58373;51.824;5.564;2023-05-19T00:31:18;102609.19;;;8.76;75.13
57990;BME280;58373;51.824;5.564;2023-05-19T00:33:43;102603.03;;;8.78;74.41
57990;BME280;58373;51.824;5.564;2023-05-19T00:36:08;102608.13;;;8.80;74.75
57990;BME280;58373;51.824;5.564;2023-05-19T00:38:34;102609.19;;;8.76;74.18
57990;BME280;58373;51.824;5.564;2023-05-19T00:41:00;102602.34;;;8.75;74.30
57990;BME280;58373;51.824;5.564;2023-05-19T00:43:26;102592.25;;;8.69;76.31
57990;BME280;58373;51.824;5.564;2023-05-19T00:45:51;102601.84;;;8.67;75.13
57990;BME280;58373;51.824;5.564;2023-05-19T00:48:16;102594.22;;;8.64;76.23
57990;BME280;58373;51.824;5.564;2023-05-19T00:50:42;102594.38;;;8.61;76.61
57990;BME280;58373;51.824;5.564;2023-05-19T00:53:07;102596.31;;;8.56;75.42
57990;BME280;58373;51.824;5.564;2023-05-19T00:55:32;102596.31;;;8.56;74.99
57990;BME280;58373;51.824;5.564;2023-05-19T00:57:59;102598.28;;;8.50;76.01
57990;BME280;58373;51.824;5.564;2023-05-19T01:00:25;102593.22;;;8.47;76.28
57990;BME280;58373;51.824;5.564;2023-05-19T01:02:50;102596.72;;;8.46;75.74
57990;BME280;58373;51.824;5.564;2023-05-19T01:05:15;102598.53;;;8.44;76.39
57990;BME280;58373;51.824;5.564;2023-05-19T01:07:41;102604.00;;;8.38;76.31
57990;BME280;58373;51.824;5.564;2023-05-19T01:10:06;102607.50;;;8.37;76.51
57990;BME280;58373;51.824;5.564;2023-05-19T01:12:32;102596.28;;;8.37;75.68
57990;BME280;58373;51.824;5.564;2023-05-19T01:14:57;102597.16;;;8.37;76.92
57990;BME280;58373;51.824;5.564;2023-05-19T01:17:25;102596.31;;;8.35;76.24
57990;BME280;58373;51.824;5.564;2023-05-19T01:20:02;102602.53;;;8.31;77.18
57990;BME280;58373;51.824;5.564;2023-05-19T01:32:38;102596.22;;;8.18;78.78
57990;BME280;58373;51.824;5.564;2023-05-19T01:35:04;102597.06;;;8.18;78.64
57990;BME280;58373;51.824;5.564;2023-05-19T01:37:31;102586.13;;;8.12;77.57
57990;BME280;58373;51.824;5.564;2023-05-19T01:39:57;102595.44;;;8.16;77.82
57990;BME280;58373;51.824;5.564;2023-05-19T01:42:22;102591.19;;;8.15;77.96
57990;BME280;58373;51.824;5.564;2023-05-19T01:44:49;102586.97;;;8.12;78.41
57990;BME280;58373;51.824;5.564;2023-05-19T01:47:15;102591.38;;;8.10;78.74
57990;BME280;58373;51.824;5.564;2023-05-19T01:49:40;102587.97;;;8.10;78.48
57990;BME280;58373;51.824;5.564;2023-05-19T01:52:05;102591.31;;;8.12;78.59
57990;BME280;58373;51.824;5.564;2023-05-19T01:54:31;102581.13;;;8.09;79.84
57990;BME280;58373;51.824;5.564;2023-05-19T01:57:07;102583.94;;;8.03;78.67
57990;BME280;58373;51.824;5.564;2023-05-19T02:02:00;102578.78;;;8.03;78.43
57990;BME280;58373;51.824;5.564;2023-05-19T02:04:38;102578.00;;;8.01;78.36
57990;BME280;58373;51.824;5.564;2023-05-19T02:12:24;102575.03;;;7.89;80.53
57990;BME280;58373;51.824;5.564;2023-05-19T02:15:06;102582.03;;;7.87;79.24
57990;BME280;58373;51.824;5.564;2023-05-19T02:17:33;102580.47;;;7.83;79.45
57990;BME280;58373;51.824;5.564;2023-05-19T02:20:00;102578.91;;;7.79;80.69
57990;BME280;58373;51.824;5.564;2023-05-19T02:22:25;102579.88;;;7.77;80.89
57990;BME280;58373;51.824;5.564;2023-05-19T02:24:50;102575.66;;;7.74;79.82
57990;BME280;58373;51.824;5.564;2023-05-19T02:27:16;102581.63;;;7.76;79.93
57990;BME280;58373;51.824;5.564;2023-05-19T02:29:41;102580.06;;;7.72;79.80
57990;BME280;58373;51.824;5.564;2023-05-19T02:32:06;102580.22;;;7.69;80.01
57990;BME280;58373;51.824;5.564;2023-05-19T02:34:31;102582.91;;;7.66;81.40
57990;BME280;58373;51.824;5.564;2023-05-19T02:36:57;102571.03;;;7.62;80.65
57990;BME280;58373;51.824;5.564;2023-05-19T02:39:22;102572.00;;;7.59;81.24
57990;BME280;58373;51.824;5.564;2023-05-19T02:41:47;102558.25;;;7.59;79.73
57990;BME280;58373;51.824;5.564;2023-05-19T02:44:12;102562.50;;;7.60;80.99
57990;BME280;58373;51.824;5.564;2023-05-19T02:46:38;102562.50;;;7.60;80.40
57990;BME280;58373;51.824;5.564;2023-05-19T02:49:03;102546.94;;;7.61;80.26
57990;BME280;58373;51.824;5.564;2023-05-19T02:51:28;102553.84;;;7.61;81.06
57990;BME280;58373;51.824;5.564;2023-05-19T02:53:53;102548.84;;;7.58;81.59
57990;BME280;58373;51.824;5.564;2023-05-19T02:56:18;102560.84;;;7.59;81.12
57990;BME280;58373;51.824;5.564;2023-05-19T02:58:45;102550.50;;;7.59;81.37
57990;BME280;58373;51.824;5.564;2023-05-19T03:01:10;102549.66;;;7.58;81.01
57990;BME280;58373;51.824;5.564;2023-05-19T03:03:36;102557.44;;;7.57;81.20
57990;BME280;58373;51.824;5.564;2023-05-19T03:06:01;102556.84;;;7.52;80.56
57990;BME280;58373;51.824;5.564;2023-05-19T03:08:26;102553.34;;;7.53;80.75
57990;BME280;58373;51.824;5.564;2023-05-19T03:10:52;102552.53;;;7.51;82.50
57990;BME280;58373;51.824;5.564;2023-05-19T03:13:17;102554.38;;;7.49;81.23
57990;BME280;58373;51.824;5.564;2023-05-19T03:15:42;102549.19;;;7.49;80.65
57990;BME280;58373;51.824;5.564;2023-05-19T03:18:08;102551.00;;;7.47;80.90
57990;BME280;58373;51.824;5.564;2023-05-19T03:20:35;102549.34;;;7.45;81.95
57990;BME280;58373;51.824;5.564;2023-05-19T03:23:01;102549.38;;;7.44;80.88
57990;BME280;58373;51.824;5.564;2023-05-19T03:25:27;102554.63;;;7.42;82.38
57990;BME280;58373;51.824;5.564;2023-05-19T03:27:52;102547.78;;;7.41;81.26
57990;BME280;58373;51.824;5.564;2023-05-19T03:30:17;102546.09;;;7.40;81.68
57990;BME280;58373;51.824;5.564;2023-05-19T03:32:42;102547.88;;;7.38;81.72
57990;BME280;58373;51.824;5.564;2023-05-19T03:35:08;102546.22;;;7.37;81.34
57990;BME280;58373;51.824;5.564;2023-05-19T03:37:33;102551.38;;;7.37;82.14
57990;BME280;58373;51.824;5.564;2023-05-19T03:39:58;102553.94;;;7.37;81.66
57990;BME280;58373;51.824;5.564;2023-05-19T03:42:24;102554.88;;;7.36;82.29
57990;BME280;58373;51.824;5.564;2023-05-19T03:44:49;102553.19;;;7.35;81.52
57990;BME280;58373;51.824;5.564;2023-05-19T03:47:14;102563.50;;;7.35;81.91
57990;BME280;58373;51.824;5.564;2023-05-19T03:49:39;102553.28;;;7.32;81.68
57990;BME280;58373;51.824;5.564;2023-05-19T03:52:05;102558.47;;;7.32;82.25
57990;BME280;58373;51.824;5.564;2023-05-19T03:54:30;102557.63;;;7.32;81.23
57990;BME280;58373;51.824;5.564;2023-05-19T03:56:55;102563.63;;;7.32;81.15
57990;BME280;58373;51.824;5.564;2023-05-19T03:59:20;102562.00;;;7.30;81.76
57990;BME280;58373;51.824;5.564;2023-05-19T04:01:47;102562.84;;;7.30;81.62
57990;BME280;58373;51.824;5.564;2023-05-19T04:04:12;102555.13;;;7.30;81.95
57990;BME280;58373;51.824;5.564;2023-05-19T04:06:38;102563.75;;;7.29;81.99
57990;BME280;58373;51.824;5.564;2023-05-19T04:09:09;102556.91;;;7.28;81.43
57990;BME280;58373;51.824;5.564;2023-05-19T04:11:35;102560.38;;;7.27;82.18
57990;BME280;58373;51.824;5.564;2023-05-19T04:14:01;102558.78;;;7.25;82.81
57990;BME280;58373;51.824;5.564;2023-05-19T04:16:26;102564.00;;;7.23;82.01
57990;BME280;58373;51.824;5.564;2023-05-19T04:18:51;102559.72;;;7.22;82.48
57990;BME280;58373;51.824;5.564;2023-05-19T04:21:16;102570.94;;;7.21;83.77
57990;BME280;58373;51.824;5.564;2023-05-19T04:23:42;102568.44;;;7.19;82.52
57990;BME280;58373;51.824;5.564;2023-05-19T04:26:07;102568.44;;;7.19;82.49
57990;BME280;58373;51.824;5.564;2023-05-19T04:28:32;102566.69;;;7.20;83.18
57990;BME280;58373;51.824;5.564;2023-05-19T04:31:00;102567.47;;;7.22;82.83
57990;BME280;58373;51.824;5.564;2023-05-19T04:33:25;102558.84;;;7.23;82.64
57990;BME280;58373;51.824;5.564;2023-05-19T04:35:53;102570.84;;;7.24;83.52
57990;BME280;58373;51.824;5.564;2023-05-19T04:38:18;102562.19;;;7.25;83.34
57990;BME280;58373;51.824;5.564;2023-05-19T04:40:43;102559.63;;;7.25;83.07
57990;BME280;58373;51.824;5.564;2023-05-19T04:43:09;102560.38;;;7.27;83.06
57990;BME280;58373;51.824;5.564;2023-05-19T04:45:35;102553.44;;;7.29;83.09
57990;BME280;58373;51.824;5.564;2023-05-19T04:48:01;102560.19;;;7.32;83.61
57990;BME280;58373;51.824;5.564;2023-05-19T04:50:26;102559.25;;;7.34;83.51
57990;BME280;58373;51.824;5.564;2023-05-19T04:52:53;102562.53;;;7.38;83.59
57990;BME280;58373;51.824;5.564;2023-05-19T04:55:18;102559.00;;;7.40;84.87
57990;BME280;58373;51.824;5.564;2023-05-19T04:57:44;102562.34;;;7.42;84.21
57990;BME280;58373;51.824;5.564;2023-05-19T05:00:09;102559.66;;;7.45;84.34
57990;BME280;58373;51.824;5.564;2023-05-19T05:02:37;102561.19;;;7.50;83.67
57990;BME280;58373;51.824;5.564;2023-05-19T05:05:03;102564.56;;;7.52;83.82
57990;BME280;58373;51.824;5.564;2023-05-19T05:07:29;102572.94;;;7.57;83.83
57990;BME280;58373;51.824;5.564;2023-05-19T05:09:54;102570.19;;;7.61;84.16
57990;BME280;58373;51.824;5.564;2023-05-19T05:12:20;102580.31;;;7.66;84.31
57990;BME280;58373;51.824;5.564;2023-05-19T05:14:45;102577.56;;;7.70;84.41
57990;BME280;58373;51.824;5.564;2023-05-19T05:17:11;102565.34;;;7.74;85.08
57990;BME280;58373;51.824;5.564;2023-05-19T05:19:37;102569.41;;;7.80;86.07
57990;BME280;58373;51.824;5.564;2023-05-19T05:22:02;102572.78;;;7.82;85.22
57990;BME280;58373;51.824;5.564;2023-05-19T05:24:28;102570.03;;;7.86;85.65
57990;BME280;58373;51.824;5.564;2023-05-19T05:26:53;102578.41;;;7.91;86.54
57990;BME280;58373;51.824;5.564;2023-05-19T05:29:18;102574.78;;;7.95;85.70
57990;BME280;58373;51.824;5.564;2023-05-19T05:31:44;102585.75;;;8.01;86.59
57990;BME280;58373;51.824;5.564;2023-05-19T05:34:10;102588.09;;;8.07;86.27
57990;BME280;58373;51.824;5.564;2023-05-19T05:36:35;102580.97;;;8.12;86.43
57990;BME280;58373;51.824;5.564;2023-05-19T05:39:00;102580.63;;;8.19;86.64
57990;BME280;58373;51.824;5.564;2023-05-19T05:41:27;102579.53;;;8.25;85.99
57990;BME280;58373;51.824;5.564;2023-05-19T05:43:53;102584.44;;;8.31;85.40
57990;BME280;58373;51.824;5.564;2023-05-19T05:46:18;102579.94;;;8.36;85.36
57990;BME280;58373;51.824;5.564;2023-05-19T05:48:44;102576.19;;;8.43;84.60
57990;BME280;58373;51.824;5.564;2023-05-19T05:51:09;102575.06;;;8.49;85.08
57990;BME280;58373;51.824;5.564;2023-05-19T05:53:36;102569.63;;;8.55;85.51
57990;BME280;58373;51.824;5.564;2023-05-19T05:56:04;102569.25;;;8.63;85.16
57990;BME280;58373;51.824;5.564;2023-05-19T05:58:30;102573.88;;;8.75;85.35
57990;BME280;58373;51.824;5.564;2023-05-19T06:00:56;102571.16;;;8.78;85.27
57990;BME280;58373;51.824;5.564;2023-05-19T06:03:22;102572.56;;;8.85;84.20
57990;BME280;58373;51.824;5.564;2023-05-19T06:05:48;102577.44;;;8.91;84.86
57990;BME280;58373;51.824;5.564;2023-05-19T06:08:13;102571.97;;;8.97;84.59
57990;BME280;58373;51.824;5.564;2023-05-19T06:10:38;102575.94;;;9.04;84.42
57990;BME280;58373;51.824;5.564;2023-05-19T06:13:05;102576.44;;;9.13;84.01
57990;BME280;58373;51.824;5.564;2023-05-19T06:15:30;102582.06;;;9.21;84.38
57990;BME280;58373;51.824;5.564;2023-05-19T06:17:56;102572.22;;;9.29;84.27
57990;BME280;58373;51.824;5.564;2023-05-19T06:20:21;102573.59;;;9.36;83.63
57990;BME280;58373;51.824;5.564;2023-05-19T06:22:46;102574.94;;;9.43;83.23
57990;BME280;58373;51.824;5.564;2023-05-19T06:25:11;102573.72;;;9.50;82.86
57990;BME280;58373;51.824;5.564;2023-05-19T06:27:37;102575.34;;;9.53;82.28
57990;BME280;58373;51.824;5.564;2023-05-19T06:30:03;102574.22;;;9.58;82.39
57990;BME280;58373;51.824;5.564;2023-05-19T06:32:28;102568.56;;;9.68;82.15
57990;BME280;58373;51.824;5.564;2023-05-19T06:34:53;102576.81;;;9.76;81.57
57990;BME280;58373;51.824;5.564;2023-05-19T06:37:19;102571.13;;;9.85;82.17
57990;BME280;58373;51.824;5.564;2023-05-19T06:39:45;102569.00;;;9.93;81.27
57990;BME280;58373;51.824;5.564;2023-05-19T06:42:10;102572.88;;;10.02;81.52
57990;BME280;58373;51.824;5.564;2023-05-19T06:44:36;102576.75;;;10.10;81.00
57990;BME280;58373;51.824;5.564;2023-05-19T06:47:01;102583.16;;;10.21;81.32
57990;BME280;58373;51.824;5.564;2023-05-19T06:49:26;102576.56;;;10.31;80.81
57990;BME280;58373;51.824;5.564;2023-05-19T06:51:53;102573.34;;;10.43;80.57
57990;BME280;58373;51.824;5.564;2023-05-19T06:54:18;102571.00;;;10.54;79.76
57990;BME280;58373;51.824;5.564;2023-05-19T06:56:43;102574.88;;;10.63;80.03
57990;BME280;58373;51.824;5.564;2023-05-19T06:59:09;102580.25;;;10.76;79.03
57990;BME280;58373;51.824;5.564;2023-05-19T07:01:34;102573.88;;;10.81;78.81
57990;BME280;58373;51.824;5.564;2023-05-19T07:03:59;102583.84;;;10.89;78.27
57990;BME280;58373;51.824;5.564;2023-05-19T07:06:25;102580.41;;;11.04;78.81
57990;BME280;58373;51.824;5.564;2023-05-19T07:08:50;102579.13;;;11.11;77.25
57990;BME280;58373;51.824;5.564;2023-05-19T07:11:15;102583.09;;;11.19;77.13
57990;BME280;58373;51.824;5.564;2023-05-19T07:13:40;102577.34;;;11.28;76.59
57990;BME280;58373;51.824;5.564;2023-05-19T07:16:06;102582.78;;;11.39;76.45
57990;BME280;58373;51.824;5.564;2023-05-19T07:18:31;102581.34;;;11.49;75.70
57990;BME280;58373;51.824;5.564;2023-05-19T07:20:56;102575.94;;;11.52;74.53
57990;BME280;58373;51.824;5.564;2023-05-19T07:23:22;102582.47;;;11.59;74.35
57990;BME280;58373;51.824;5.564;2023-05-19T07:25:48;102587.31;;;11.65;74.30
57990;BME280;58373;51.824;5.564;2023-05-19T07:28:13;102585.94;;;11.74;72.53
57990;BME280;58373;51.824;5.564;2023-05-19T07:30:38;102583.81;;;11.81;73.50
57990;BME280;58373;51.824;5.564;2023-05-19T07:33:04;102574.13;;;11.84;72.27
57990;BME280;58373;51.824;5.564;2023-05-19T07:35:29;102576.19;;;11.93;71.99
57990;BME280;58373;51.824;5.564;2023-05-19T07:37:54;102575.50;;;12.04;72.52
57990;BME280;58373;51.824;5.564;2023-05-19T07:40:19;102577.56;;;12.13;72.04
57990;BME280;58373;51.824;5.564;2023-05-19T07:42:45;102576.38;;;12.19;71.70
57990;BME280;58373;51.824;5.564;2023-05-19T07:45:10;102574.78;;;12.31;71.93
57990;BME280;58373;51.824;5.564;2023-05-19T07:47:35;102569.03;;;12.40;70.55
57990;BME280;58373;51.824;5.564;2023-05-19T07:50:01;102568.44;;;12.49;70.86
57990;BME280;58373;51.824;5.564;2023-05-19T07:52:26;102569.09;;;12.53;69.97
57990;BME280;58373;51.824;5.564;2023-05-19T07:54:51;102574.97;;;12.56;69.53
57990;BME280;58373;51.824;5.564;2023-05-19T07:57:17;102569.00;;;12.68;70.30
57990;BME280;58373;51.824;5.564;2023-05-19T07:59:42;102566.34;;;12.83;70.04
57990;BME280;58373;51.824;5.564;2023-05-19T08:02:08;102561.28;;;12.94;69.03
57990;BME280;58373;51.824;5.564;2023-05-19T08:04:33;102565.94;;;13.03;69.23
57990;BME280;58373;51.824;5.564;2023-05-19T08:06:58;102567.72;;;13.15;67.08
57990;BME280;58373;51.824;5.564;2023-05-19T08:09:23;102557.66;;;13.23;66.67
57990;BME280;58373;51.824;5.564;2023-05-19T08:11:48;102563.41;;;13.28;67.17
57990;BME280;58373;51.824;5.564;2023-05-19T08:14:14;102554.25;;;13.36;66.63
57990;BME280;58373;51.824;5.564;2023-05-19T08:16:39;102560.34;;;13.49;66.90
57990;BME280;58373;51.824;5.564;2023-05-19T08:19:06;102552.44;;;13.63;66.47
57990;BME280;58373;51.824;5.564;2023-05-19T08:21:31;102550.88;;;13.73;64.22
57990;BME280;58373;51.824;5.564;2023-05-19T08:24:00;102561.19;;;13.88;65.94
57990;BME280;58373;51.824;5.564;2023-05-19T08:26:26;102556.59;;;14.04;64.24
57990;BME280;58373;51.824;5.564;2023-05-19T08:28:51;102553.16;;;14.16;63.18
57990;BME280;58373;51.824;5.564;2023-05-19T08:31:16;102546.34;;;14.26;64.88
57990;BME280;58373;51.824;5.564;2023-05-19T08:33:42;102548.03;;;14.40;64.30
57990;BME280;58373;51.824;5.564;2023-05-19T08:36:07;102542.78;;;14.53;64.12
57990;BME280;58373;51.824;5.564;2023-05-19T08:38:32;102543.59;;;14.66;62.77
57990;BME280;58373;51.824;5.564;2023-05-19T08:40:58;102539.38;;;14.76;63.04
57990;BME280;58373;51.824;5.564;2023-05-19T08:43:23;102530.38;;;14.80;61.35
57990;BME280;58373;51.824;5.564;2023-05-19T08:45:48;102538.94;;;14.82;62.45
57990;BME280;58373;51.824;5.564;2023-05-19T08:48:15;102538.47;;;14.88;62.29
57990;BME280;58373;51.824;5.564;2023-05-19T08:50:41;102524.25;;;14.93;61.79
57990;BME280;58373;51.824;5.564;2023-05-19T08:53:21;102520.47;;;14.97;59.38
57990;BME280;58373;51.824;5.564;2023-05-19T08:58:18;102520.63;;;15.06;60.68
57990;BME280;58373;51.824;5.564;2023-05-19T09:00:46;102514.34;;;15.09;60.85
57990;BME280;58373;51.824;5.564;2023-05-19T09:03:11;102515.78;;;15.13;58.52
57990;BME280;58373;51.824;5.564;2023-05-19T09:05:37;102512.66;;;15.08;56.67
57990;BME280;58373;51.824;5.564;2023-05-19T09:08:02;102517.88;;;15.08;57.40
57990;BME280;58373;51.824;5.564;2023-05-19T09:10:28;102517.34;;;15.16;57.84
57990;BME280;58373;51.824;5.564;2023-05-19T09:12:54;102518.66;;;15.21;58.20
57990;BME280;58373;51.824;5.564;2023-05-19T09:15:19;102511.31;;;15.26;57.76
57990;BME280;58373;51.824;5.564;2023-05-19T09:17:44;102514.84;;;15.25;55.25
57990;BME280;58373;51.824;5.564;2023-05-19T09:20:12;102508.78;;;15.25;56.27
57990;BME280;58373;51.824;5.564;2023-05-19T09:22:40;102498.81;;;15.19;54.01
57990;BME280;58373;51.824;5.564;2023-05-19T09:25:16;102504.66;;;15.22;53.36
57990;BME280;58373;51.824;5.564;2023-05-19T09:27:41;102500.88;;;15.26;57.16
57990;BME280;58373;51.824;5.564;2023-05-19T09:30:06;102503.50;;;15.37;56.10
57990;BME280;58373;51.824;5.564;2023-05-19T09:32:33;102494.25;;;15.45;53.94
57990;BME280;58373;51.824;5.564;2023-05-19T09:35:01;102492.13;;;15.50;54.33
57990;BME280;58373;51.824;5.564;2023-05-19T09:37:26;102501.88;;;15.59;54.34
57990;BME280;58373;51.824;5.564;2023-05-19T09:39:51;102494.13;;;15.57;54.03
57990;BME280;58373;51.824;5.564;2023-05-19T09:42:26;102491.66;;;15.56;52.45
57990;BME280;58373;51.824;5.564;2023-05-19T09:44:59;102490.91;;;15.54;51.91
57990;BME280;58373;51.824;5.564;2023-05-19T09:47:25;102495.94;;;15.57;53.90
57990;BME280;58373;51.824;5.564;2023-05-19T09:49:52;102494.31;;;15.67;53.40
57990;BME280;58373;51.824;5.564;2023-05-19T09:52:17;102495.63;;;15.84;54.09
57990;BME280;58373;51.824;5.564;2023-05-19T09:54:43;102506.59;;;16.00;52.74
57990;BME280;58373;51.824;5.564;2023-05-19T09:57:08;102505.84;;;16.09;52.20
57990;BME280;58373;51.824;5.564;2023-05-19T09:59:34;102493.09;;;16.16;50.49
57990;BME280;58373;51.824;5.564;2023-05-19T10:01:59;102496.66;;;16.26;51.88
57990;BME280;58373;51.824;5.564;2023-05-19T10:04:25;102495.69;;;16.38;52.43
57990;BME280;58373;51.824;5.564;2023-05-19T10:06:51;102499.06;;;16.29;51.34
57990;BME280;58373;51.824;5.564;2023-05-19T10:09:19;102479.53;;;16.22;47.54
57990;BME280;58373;51.824;5.564;2023-05-19T10:11:45;102486.19;;;16.26;49.18
57990;BME280;58373;51.824;5.564;2023-05-19T10:14:11;102483.78;;;16.34;49.63
57990;BME280;58373;51.824;5.564;2023-05-19T10:16:36;102483.53;;;16.49;50.37
57990;BME280;58373;51.824;5.564;2023-05-19T10:19:02;102489.47;;;16.51;49.80
57990;BME280;58373;51.824;5.564;2023-05-19T10:21:28;102486.13;;;16.60;49.64
57990;BME280;58373;51.824;5.564;2023-05-19T10:23:53;102483.00;;;16.66;49.97
57990;BME280;58373;51.824;5.564;2023-05-19T10:26:19;102478.34;;;16.69;45.70
57990;BME280;58373;51.824;5.564;2023-05-19T10:28:45;102481.56;;;16.73;48.48
57990;BME280;58373;51.824;5.564;2023-05-19T10:31:13;102480.09;;;16.80;48.43
57990;BME280;58373;51.824;5.564;2023-05-19T10:33:44;102472.47;;;16.88;47.78
57990;BME280;58373;51.824;5.564;2023-05-19T10:39:05;102477.16;;;17.06;48.62
57990;BME280;58373;51.824;5.564;2023-05-19T10:41:45;102467.34;;;17.08;47.85
57990;BME280;58373;51.824;5.564;2023-05-19T10:46:39;102472.47;;;17.30;48.39
57990;BME280;58373;51.824;5.564;2023-05-19T10:49:06;102471.13;;;17.36;46.19
57990;BME280;58373;51.824;5.564;2023-05-19T10:51:31;102471.84;;;17.38;46.94
57990;BME280;58373;51.824;5.564;2023-05-19T10:53:57;102473.13;;;17.43;47.74
57990;BME280;58373;51.824;5.564;2023-05-19T10:56:27;102467.34;;;17.49;46.56
57990;BME280;58373;51.824;5.564;2023-05-19T10:58:57;102462.09;;;17.49;47.33
57990;BME280;58373;51.824;5.564;2023-05-19T11:01:28;102465.94;;;17.45;45.28
57990;BME280;58373;51.824;5.564;2023-05-19T11:03:54;102464.75;;;17.29;46.18
57990;BME280;58373;51.824;5.564;2023-05-19T11:06:31;102453.66;;;17.25;46.12
57990;BME280;58373;51.824;5.564;2023-05-19T11:09:00;102463.63;;;17.31;47.19
57990;BME280;58373;51.824;5.564;2023-05-19T11:11:26;102458.06;;;17.45;47.65
57990;BME280;58373;51.824;5.564;2023-05-19T11:14:06;102459.41;;;17.61;45.45
57990;BME280;58373;51.824;5.564;2023-05-19T11:16:34;102462.44;;;17.66;44.17
57990;BME280;58373;51.824;5.564;2023-05-19T11:19:00;102467.75;;;17.55;44.13
57990;BME280;58373;51.824;5.564;2023-05-19T11:24:28;102454.47;;;17.46;47.16
57990;BME280;58373;51.824;5.564;2023-05-19T11:26:55;102456.56;;;17.52;46.75
57990;BME280;58373;51.824;5.564;2023-05-19T11:29:21;102456.06;;;17.59;45.94
57990;BME280;58373;51.824;5.564;2023-05-19T11:31:46;102454.66;;;17.55;45.21
57990;BME280;58373;51.824;5.564;2023-05-19T11:34:11;102454.09;;;17.51;46.15
57990;BME280;58373;51.824;5.564;2023-05-19T11:36:37;102457.72;;;17.60;47.09
57990;BME280;58373;51.824;5.564;2023-05-19T11:39:03;102454.31;;;17.69;45.55
57990;BME280;58373;51.824;5.564;2023-05-19T11:41:29;102442.53;;;17.84;45.68
57990;BME280;58373;51.824;5.564;2023-05-19T11:43:55;102441.47;;;17.96;45.01
57990;BME280;58373;51.824;5.564;2023-05-19T11:46:20;102440.53;;;18.07;44.35
57990;BME280;58373;51.824;5.564;2023-05-19T11:48:46;102436.38;;;18.14;44.45
57990;BME280;58373;51.824;5.564;2023-05-19T11:51:11;102440.53;;;18.17;42.78
57990;BME280;58373;51.824;5.564;2023-05-19T11:53:36;102446.06;;;18.14;43.66
57990;BME280;58373;51.824;5.564;2023-05-19T11:56:02;102435.28;;;18.17;44.73
57990;BME280;58373;51.824;5.564;2023-05-19T11:58:28;102435.81;;;18.11;42.27
57990;BME280;58373;51.824;5.564;2023-05-19T12:00:53;102440.81;;;18.14;42.93
57990;BME280;58373;51.824;5.564;2023-05-19T12:03:21;102434.00;;;18.11;41.51
57990;BME280;58373;51.824;5.564;2023-05-19T12:05:51;102438.53;;;17.99;41.46
57990;BME280;58373;51.824;5.564;2023-05-19T12:08:17;102424.72;;;17.97;42.99
57990;BME280;58373;51.824;5.564;2023-05-19T12:10:42;102430.84;;;18.08;43.13
57990;BME280;58373;51.824;5.564;2023-05-19T12:13:08;102431.00;;;18.16;42.19
57990;BME280;58373;51.824;5.564;2023-05-19T12:15:33;102421.16;;;18.18;42.68
57990;BME280;58373;51.824;5.564;2023-05-19T12:18:00;102422.56;;;18.22;42.85
57990;BME280;58373;51.824;5.564;2023-05-19T12:20:27;102417.06;;;18.25;42.16
57990;BME280;58373;51.824;5.564;2023-05-19T12:22:56;102415.41;;;18.24;42.68
57990;BME280;58373;51.824;5.564;2023-05-19T12:25:22;102417.03;;;18.35;41.64
57990;BME280;58373;51.824;5.564;2023-05-19T12:27:47;102423.97;;;18.26;41.18
57990;BME280;58373;51.824;5.564;2023-05-19T12:30:14;102419.25;;;18.20;40.43
57990;BME280;58373;51.824;5.564;2023-05-19T12:32:39;102424.22;;;18.23;40.67
57990;BME280;58373;51.824;5.564;2023-05-19T12:35:05;102421.19;;;18.27;41.30
57990;BME280;58373;51.824;5.564;2023-05-19T12:37:33;102431.72;;;18.37;41.81
57990;BME280;58373;51.824;5.564;2023-05-19T12:40:02;102412.09;;;18.41;40.28
57990;BME280;58373;51.824;5.564;2023-05-19T12:42:28;102419.00;;;18.42;41.14
57990;BME280;58373;51.824;5.564;2023-05-19T12:44:57;102412.91;;;18.42;40.50
57990;BME280;58373;51.824;5.564;2023-05-19T12:47:28;102412.50;;;18.37;39.45
57990;BME280;58373;51.824;5.564;2023-05-19T12:52:27;102397.56;;;18.37;40.17
57990;BME280;58373;51.824;5.564;2023-05-19T12:55:03;102394.25;;;18.54;40.59
57990;BME280;58373;51.824;5.564;2023-05-19T12:57:35;102398.53;;;18.55;38.90
57990;BME280;58373;51.824;5.564;2023-05-19T13:00:03;102391.88;;;18.51;40.61
57990;BME280;58373;51.824;5.564;2023-05-19T13:02:33;102389.94;;;18.63;40.46
57990;BME280;58373;51.824;5.564;2023-05-19T13:04:59;102386.91;;;18.77;42.19
57990;BME280;58373;51.824;5.564;2023-05-19T13:07:24;102389.13;;;18.82;40.34
57990;BME280;58373;51.824;5.564;2023-05-19T13:09:49;102386.66;;;18.71;41.16
57990;BME280;58373;51.824;5.564;2023-05-19T13:12:15;102384.44;;;18.76;40.58
57990;BME280;58373;51.824;5.564;2023-05-19T13:14:40;102371.41;;;18.84;40.12
57990;BME280;58373;51.824;5.564;2023-05-19T13:17:06;102376.69;;;18.74;39.51
57990;BME280;58373;51.824;5.564;2023-05-19T13:19:31;102371.16;;;18.68;40.31
57990;BME280;58373;51.824;5.564;2023-05-19T13:21:56;102371.41;;;18.74;40.43